createdAt,value
2022-08-20T00:00:48.215Z,94.51
2022-08-20T00:01:48.251Z,94.55
2022-08-20T00:02:48.188Z,94.65
2022-08-20T00:03:53.331Z,94.55
2022-08-20T00:04:49.147Z,94.15
2022-08-20T00:05:48.158Z,94.45
2022-08-20T00:06:48.125Z,94.15
2022-08-20T00:07:48.129Z,94.25
2022-08-20T00:08:48.139Z,94.35
2022-08-20T00:09:48.087Z,94.25
2022-08-20T00:10:49.753Z,94.15
2022-08-20T00:11:49.057Z,94.15
2022-08-20T00:12:48.048Z,94.05
2022-08-20T00:13:48.051Z,93.74
2022-08-20T00:14:48.020Z,93.85
2022-08-20T00:15:48.029Z,93.44
2022-08-20T00:16:48.003Z,93.15
2022-08-20T00:17:47.979Z,93.15
2022-08-20T00:18:47.984Z,92.94
2022-08-20T00:19:48.060Z,92.94
2022-08-20T00:20:47.940Z,92.94
2022-08-20T00:21:47.943Z,92.94
2022-08-20T00:22:47.911Z,92.84
2022-08-20T00:23:47.915Z,93.15
2022-08-20T00:24:47.897Z,93.04
2022-08-20T00:25:47.992Z,92.84
2022-08-20T00:26:51.979Z,92.84
2022-08-20T00:27:47.865Z,92.54
2022-08-20T00:28:47.851Z,92.50
2022-08-20T00:29:47.826Z,92.50
2022-08-20T00:30:47.821Z,92.70
2022-08-20T00:31:47.795Z,92.80
2022-08-20T00:32:47.775Z,92.80
2022-08-20T00:33:47.781Z,92.94
2022-08-20T00:34:47.747Z,92.94
2022-08-20T00:35:47.760Z,92.94
2022-08-20T00:36:47.852Z,92.94
2022-08-20T00:37:47.716Z,92.84
2022-08-20T00:38:47.711Z,93.04
2022-08-20T00:39:47.724Z,93.24
2022-08-20T00:40:47.677Z,93.04
2022-08-20T00:41:47.682Z,93.04
2022-08-20T00:42:47.702Z,93.15
2022-08-20T00:43:47.639Z,93.04
2022-08-20T00:44:47.619Z,93.15
2022-08-20T00:45:47.632Z,93.35
2022-08-20T00:46:47.598Z,93.35
2022-08-20T00:47:51.651Z,93.24
2022-08-20T00:48:47.606Z,93.55
2022-08-20T00:49:47.562Z,93.55
2022-08-20T00:50:47.556Z,93.44
2022-08-20T00:51:47.531Z,93.44
2022-08-20T00:52:49.796Z,93.35
2022-08-20T00:53:47.525Z,93.44
2022-08-20T00:54:47.623Z,93.35
2022-08-20T00:55:47.497Z,93.35
2022-08-20T00:56:47.479Z,93.35
2022-08-20T00:57:59.148Z,93.44
2022-08-20T00:58:48.436Z,93.55
2022-08-20T00:59:47.452Z,93.69
2022-08-20T01:00:47.429Z,93.99
2022-08-20T01:01:55.229Z,93.89
2022-08-20T01:02:48.399Z,94.09
2022-08-20T01:03:47.377Z,94.09
2022-08-20T01:04:47.359Z,94.20
2022-08-20T01:05:47.369Z,94.20
2022-08-20T01:06:47.337Z,94.20
2022-08-20T01:07:47.340Z,94.20
2022-08-20T01:08:47.322Z,94.20
2022-08-20T01:09:57.896Z,94.39
2022-08-20T01:10:48.294Z,94.29
2022-08-20T01:11:47.271Z,94.29
2022-08-20T01:12:47.251Z,94.39
2022-08-20T01:13:47.264Z,94.39
2022-08-20T01:14:47.231Z,94.39
2022-08-20T01:15:47.264Z,94.49
2022-08-20T01:16:47.217Z,94.39
2022-08-20T01:17:47.193Z,94.39
2022-08-20T01:18:47.199Z,94.39
2022-08-20T01:19:47.170Z,94.29
2022-08-20T01:20:47.153Z,94.29
2022-08-20T01:21:49.886Z,94.20
2022-08-20T01:22:47.131Z,94.20
2022-08-20T01:23:47.128Z,94.20
2022-08-20T01:24:47.111Z,94.09
2022-08-20T01:25:47.086Z,93.99
2022-08-20T01:26:47.087Z,93.89
2022-08-20T01:27:47.090Z,93.79
2022-08-20T01:28:48.047Z,93.69
2022-08-20T01:29:47.051Z,93.59
2022-08-20T01:30:47.032Z,93.69
2022-08-20T01:31:47.008Z,93.69
2022-08-20T01:32:46.989Z,93.89
2022-08-20T01:33:47.002Z,94.09
2022-08-20T01:34:46.959Z,94.20
2022-08-20T01:35:46.973Z,94.39
2022-08-20T01:36:46.954Z,94.44
2022-08-20T01:37:46.930Z,94.64
2022-08-20T01:38:54.315Z,94.74
2022-08-20T01:39:47.961Z,94.84
2022-08-20T01:40:46.892Z,94.94
2022-08-20T01:41:46.895Z,95.14
2022-08-20T01:42:58.674Z,95.24
2022-08-20T01:43:47.897Z,95.44
2022-08-20T01:44:46.848Z,95.54
2022-08-20T01:45:46.823Z,95.79
2022-08-20T01:46:46.813Z,95.99
2022-08-20T01:47:46.818Z,96.19
2022-08-20T01:48:46.798Z,96.30
2022-08-20T01:49:46.804Z,96.30
2022-08-20T01:50:46.769Z,96.15
2022-08-20T01:51:46.746Z,95.95
2022-08-20T01:52:46.734Z,95.95
2022-08-20T01:53:46.741Z,95.95
2022-08-20T01:54:46.706Z,95.84
2022-08-20T01:55:46.752Z,95.84
2022-08-20T01:56:46.691Z,95.95
2022-08-20T01:57:46.668Z,95.95
2022-08-20T01:58:46.670Z,95.95
2022-08-20T01:59:46.648Z,96.04
2022-08-20T02:00:46.629Z,96.04
2022-08-20T02:01:47.212Z,96.15
2022-08-20T02:02:46.613Z,96.19
2022-08-20T02:03:46.591Z,96.15
2022-08-20T02:04:46.572Z,96.15
2022-08-20T02:05:46.576Z,96.15
2022-08-20T02:06:56.253Z,96.30
2022-08-20T02:07:47.556Z,96.39
2022-08-20T02:08:46.538Z,96.50
2022-08-20T02:09:46.512Z,96.59
2022-08-20T02:10:46.509Z,96.59
2022-08-20T02:11:46.483Z,96.59
2022-08-20T02:12:46.473Z,96.59
2022-08-20T02:13:46.478Z,96.50
2022-08-20T02:14:46.447Z,96.39
2022-08-20T02:15:46.449Z,96.35
2022-08-20T02:16:52.392Z,96.15
2022-08-20T02:17:47.515Z,96.04
2022-08-20T02:18:46.400Z,95.84
2022-08-20T02:19:46.377Z,95.84
2022-08-20T02:20:46.366Z,95.84
2022-08-20T02:21:46.374Z,95.95
2022-08-20T02:22:50.419Z,96.04
2022-08-20T02:23:46.349Z,96.30
2022-08-20T02:24:46.322Z,96.39
2022-08-20T02:25:46.300Z,96.50
2022-08-20T02:26:46.294Z,96.59
2022-08-20T02:27:46.336Z,96.59
2022-08-20T02:28:46.259Z,96.50
2022-08-20T02:29:46.264Z,96.59
2022-08-20T02:30:46.230Z,96.59
2022-08-20T02:32:24.928Z,96.69
2022-08-20T02:32:47.217Z,96.69
2022-08-20T02:34:14.800Z,96.80
2022-08-20T02:34:47.180Z,96.80
2022-08-20T02:35:46.185Z,96.69
2022-08-20T02:36:46.167Z,96.69
2022-08-20T02:37:46.143Z,96.80
2022-08-20T02:38:46.249Z,96.69
2022-08-20T02:39:46.147Z,96.69
2022-08-20T02:40:46.095Z,96.89
2022-08-20T02:41:46.106Z,97.00
2022-08-20T02:42:46.074Z,97.20
2022-08-20T02:43:46.078Z,97.20
2022-08-20T02:44:46.090Z,97.30
2022-08-20T02:45:46.037Z,97.30
2022-08-20T02:46:46.031Z,97.30
2022-08-20T02:47:46.007Z,97.20
2022-08-20T02:48:45.995Z,97.20
2022-08-20T02:49:46.000Z,97.30
2022-08-20T02:50:45.983Z,97.20
2022-08-20T02:51:45.960Z,97.30
2022-08-20T02:52:51.618Z,97.40
2022-08-20T02:53:46.944Z,97.40
2022-08-20T02:54:45.910Z,97.40
2022-08-20T02:55:45.953Z,97.40
2022-08-20T02:56:45.903Z,97.50
2022-08-20T02:57:45.878Z,97.50
2022-08-20T02:58:46.875Z,97.50
2022-08-20T02:59:45.853Z,97.50
2022-08-20T03:00:45.832Z,97.60
2022-08-20T03:01:45.877Z,97.70
2022-08-20T03:02:45.803Z,97.60
2022-08-20T03:03:45.815Z,97.50
2022-08-20T03:04:45.803Z,97.30
2022-08-20T03:05:45.781Z,97.20
2022-08-20T03:06:45.755Z,97.09
2022-08-20T03:07:45.888Z,96.89
2022-08-20T03:08:45.742Z,96.55
2022-08-20T03:09:45.715Z,96.59
2022-08-20T03:10:45.710Z,96.59
2022-08-20T03:11:45.694Z,96.69
2022-08-20T03:12:45.676Z,96.80
2022-08-20T03:13:45.681Z,96.80
2022-08-20T03:14:45.647Z,96.80
2022-08-20T03:15:45.651Z,96.89
2022-08-20T03:16:45.632Z,97.00
2022-08-20T03:17:45.608Z,97.20
2022-08-20T03:18:45.641Z,97.30
2022-08-20T03:19:45.588Z,97.40
2022-08-20T03:20:45.974Z,97.30
2022-08-20T03:21:45.575Z,97.44
2022-08-20T03:22:45.564Z,97.75
2022-08-20T03:23:45.530Z,98.05
2022-08-20T03:24:45.551Z,98.35
2022-08-20T03:25:45.515Z,98.70
2022-08-20T03:26:45.493Z,98.90
2022-08-20T03:27:45.486Z,99.00
2022-08-20T03:28:45.484Z,99.10
2022-08-20T03:29:45.444Z,99.20
2022-08-20T03:30:45.457Z,99.40
2022-08-20T03:31:45.424Z,99.40
2022-08-20T03:32:45.414Z,99.60
2022-08-20T03:33:53.011Z,99.80
2022-08-20T03:34:46.385Z,99.99
2022-08-20T03:35:45.409Z,99.99
2022-08-20T03:36:45.378Z,99.99
2022-08-20T03:37:45.755Z,99.99
2022-08-20T03:38:45.337Z,99.99
2022-08-20T03:39:45.360Z,99.99
2022-08-20T03:40:45.322Z,99.99
2022-08-20T03:41:45.318Z,99.99
2022-08-20T03:42:45.302Z,99.99
2022-08-20T03:43:45.268Z,99.99
2022-08-20T03:44:45.261Z,99.99
2022-08-20T03:45:45.252Z,99.99
2022-08-20T03:46:45.231Z,99.99
2022-08-20T03:47:45.248Z,99.99
2022-08-20T03:48:45.215Z,99.99
2022-08-20T03:49:45.181Z,99.99
2022-08-20T03:50:45.194Z,99.99
2022-08-20T03:51:57.984Z,99.99
2022-08-20T03:52:46.172Z,99.99
2022-08-20T03:53:45.149Z,99.99
2022-08-20T03:54:45.136Z,99.99
2022-08-20T03:55:45.389Z,99.99
2022-08-20T03:56:46.101Z,99.99
2022-08-20T03:57:45.088Z,99.99
2022-08-20T03:58:45.072Z,99.99
2022-08-20T03:59:45.059Z,99.99
2022-08-20T04:00:45.056Z,99.99
2022-08-20T04:01:46.728Z,99.99
2022-08-20T04:02:45.028Z,99.99
2022-08-20T04:03:45.001Z,99.99
2022-08-20T04:04:44.987Z,99.99
2022-08-20T04:05:44.981Z,99.99
2022-08-20T04:06:44.967Z,99.99
2022-08-20T04:07:44.952Z,99.99
2022-08-20T04:08:44.951Z,99.99
2022-08-20T04:09:44.918Z,99.99
2022-08-20T04:10:44.910Z,99.99
2022-08-20T04:11:44.903Z,99.99
2022-08-20T04:12:52.750Z,99.99
2022-08-20T04:13:45.861Z,99.99
2022-08-20T04:14:44.864Z,99.99
2022-08-20T04:15:44.832Z,99.99
2022-08-20T04:16:44.823Z,99.99
2022-08-20T04:17:44.823Z,99.99
2022-08-20T04:19:01.730Z,99.99
2022-08-20T04:19:45.795Z,99.99
2022-08-20T04:20:44.786Z,99.99
2022-08-20T04:21:44.754Z,99.99
2022-08-20T04:22:44.768Z,99.99
2022-08-20T04:23:45.765Z,99.99
2022-08-20T04:24:44.716Z,99.99
2022-08-20T04:25:44.717Z,99.99
2022-08-20T04:26:44.693Z,99.99
2022-08-20T04:27:44.687Z,99.99
2022-08-20T04:28:44.679Z,99.99
2022-08-20T04:29:44.675Z,99.99
2022-08-20T04:30:51.628Z,99.99
2022-08-20T04:31:45.619Z,99.99
2022-08-20T04:32:44.610Z,99.99
2022-08-20T04:33:44.610Z,99.99
2022-08-20T04:34:44.581Z,99.99
2022-08-20T04:35:44.580Z,99.99
2022-08-20T04:36:44.572Z,99.99
2022-08-20T04:37:44.530Z,99.99
2022-08-20T04:38:49.793Z,99.99
2022-08-20T04:39:45.565Z,99.99
2022-08-20T04:40:44.620Z,99.99
2022-08-20T04:41:44.496Z,99.99
2022-08-20T04:42:44.485Z,99.99
2022-08-20T04:43:44.452Z,99.99
2022-08-20T04:44:44.452Z,99.99
2022-08-20T04:45:44.449Z,99.99
2022-08-20T04:46:44.429Z,99.99
2022-08-20T04:47:44.417Z,99.99
2022-08-20T04:48:49.180Z,99.99
2022-08-20T04:49:45.374Z,99.99
2022-08-20T04:50:44.380Z,99.99
2022-08-20T04:51:44.355Z,99.99
2022-08-20T04:52:44.336Z,99.99
2022-08-20T04:53:44.330Z,99.99
2022-08-20T04:54:45.316Z,99.99
2022-08-20T04:55:44.310Z,99.99
2022-08-20T04:56:44.321Z,99.99
2022-08-20T04:57:44.267Z,99.99
2022-08-20T04:58:44.257Z,99.99
2022-08-20T04:59:44.260Z,99.99
2022-08-20T05:00:44.251Z,99.99
2022-08-20T05:01:44.220Z,99.99
2022-08-20T05:02:44.251Z,99.99
2022-08-20T05:03:44.190Z,99.99
2022-08-20T05:04:44.180Z,99.99
2022-08-20T05:06:19.844Z,99.99
2022-08-20T05:06:44.151Z,99.99
2022-08-20T05:07:44.131Z,99.99
2022-08-20T05:08:44.164Z,99.99
2022-08-20T05:09:44.332Z,99.99
2022-08-20T05:10:44.113Z,99.99
2022-08-20T05:11:44.094Z,99.99
2022-08-20T05:12:44.071Z,99.99
2022-08-20T05:13:45.083Z,99.99
2022-08-20T05:14:44.057Z,99.99
2022-08-20T05:15:44.038Z,99.99
2022-08-20T05:16:44.016Z,99.99
2022-08-20T05:17:44.008Z,99.99
2022-08-20T05:18:43.992Z,99.99
2022-08-20T05:19:43.975Z,99.99
2022-08-20T05:20:43.978Z,99.99
2022-08-20T05:21:43.946Z,99.99
2022-08-20T05:22:43.952Z,99.99
2022-08-20T05:23:43.931Z,99.99
2022-08-20T05:24:43.946Z,99.99
2022-08-20T05:25:43.904Z,99.99
2022-08-20T05:26:43.878Z,99.99
2022-08-20T05:27:47.745Z,99.99
2022-08-20T05:28:57.822Z,99.99
2022-08-20T05:29:44.869Z,99.99
2022-08-20T05:30:43.843Z,99.99
2022-08-20T05:31:43.823Z,99.99
2022-08-20T05:32:44.660Z,99.99
2022-08-20T05:33:43.802Z,99.99
2022-08-20T05:34:43.771Z,99.99
2022-08-20T05:35:43.892Z,99.99
2022-08-20T05:36:43.764Z,99.99
2022-08-20T05:37:43.722Z,99.99
2022-08-20T05:38:43.736Z,99.99
2022-08-20T05:39:44.737Z,99.99
2022-08-20T05:40:43.693Z,99.99
2022-08-20T05:41:43.688Z,99.99
2022-08-20T05:42:43.664Z,99.99
2022-08-20T05:43:43.645Z,99.99
2022-08-20T05:44:43.657Z,99.99
2022-08-20T05:45:43.639Z,99.99
2022-08-20T05:46:43.750Z,99.99
2022-08-20T05:47:43.596Z,99.99
2022-08-20T05:48:43.599Z,99.99
2022-08-20T05:49:43.566Z,99.99
2022-08-20T05:50:43.571Z,99.99
2022-08-20T05:51:43.553Z,99.99
2022-08-20T05:52:43.568Z,99.99
2022-08-20T05:53:43.531Z,99.99
2022-08-20T05:54:43.499Z,99.99
2022-08-20T05:55:43.488Z,99.99
2022-08-20T05:56:43.494Z,99.99
2022-08-20T05:57:43.461Z,99.99
2022-08-20T05:58:43.493Z,99.99
2022-08-20T05:59:43.445Z,99.99
2022-08-20T06:00:43.420Z,99.99
2022-08-20T06:01:43.418Z,99.99
2022-08-20T06:02:43.413Z,99.99
2022-08-20T06:03:43.395Z,99.99
2022-08-20T06:04:43.373Z,99.99
2022-08-20T06:05:43.365Z,99.99
2022-08-20T06:06:45.834Z,99.99
2022-08-20T06:07:43.323Z,99.99
2022-08-20T06:08:43.337Z,99.99
2022-08-20T06:09:44.532Z,99.99
2022-08-20T06:10:43.374Z,99.99
2022-08-20T06:11:43.287Z,99.99
2022-08-20T06:12:43.265Z,99.99
2022-08-20T06:13:43.259Z,99.99
2022-08-20T06:14:43.271Z,99.99
2022-08-20T06:15:43.215Z,99.99
2022-08-20T06:16:57.169Z,99.99
2022-08-20T06:17:44.209Z,99.99
2022-08-20T06:18:43.187Z,99.99
2022-08-20T06:19:44.452Z,99.99
2022-08-20T06:20:43.308Z,99.99
2022-08-20T06:21:43.138Z,99.99
2022-08-20T06:22:43.151Z,99.99
2022-08-20T06:23:54.381Z,99.99
2022-08-20T06:24:44.100Z,99.99
2022-08-20T06:25:43.103Z,99.99
2022-08-20T06:26:43.121Z,99.99
2022-08-20T06:27:43.061Z,99.99
2022-08-20T06:28:43.074Z,99.99
2022-08-20T06:29:43.032Z,99.99
2022-08-20T06:30:43.036Z,99.99
2022-08-20T06:31:43.023Z,99.99
2022-08-20T06:32:43.003Z,99.99
2022-08-20T06:33:42.998Z,99.99
2022-08-20T06:34:50.555Z,99.99
2022-08-20T06:35:43.953Z,99.99
2022-08-20T06:36:42.958Z,99.99
2022-08-20T06:37:42.935Z,99.99
2022-08-20T06:38:42.939Z,99.99
2022-08-20T06:39:42.941Z,99.99
2022-08-20T06:40:42.896Z,99.99
2022-08-20T06:41:42.892Z,99.99
2022-08-20T06:42:47.793Z,99.99
2022-08-20T06:43:43.847Z,99.99
2022-08-20T06:44:42.859Z,99.99
2022-08-20T06:45:42.818Z,99.99
2022-08-20T06:46:42.833Z,99.99
2022-08-20T06:47:42.812Z,99.99
2022-08-20T06:48:42.909Z,99.99
2022-08-20T06:49:42.769Z,99.99
2022-08-20T06:50:47.613Z,99.99
2022-08-20T06:51:43.753Z,99.99
2022-08-20T06:52:52.681Z,99.99
2022-08-20T06:53:43.754Z,99.99
2022-08-20T06:54:42.708Z,99.99
2022-08-20T06:55:42.692Z,99.99
2022-08-20T06:56:43.697Z,99.99
2022-08-20T06:57:42.663Z,99.99
2022-08-20T06:58:42.671Z,99.99
2022-08-20T06:59:42.654Z,99.99
2022-08-20T07:00:42.681Z,99.99
2022-08-20T07:01:42.640Z,99.99
2022-08-20T07:02:42.605Z,99.99
2022-08-20T07:03:54.386Z,99.99
2022-08-20T07:04:43.618Z,99.99
2022-08-20T07:05:42.577Z,99.99
2022-08-20T07:06:42.546Z,99.99
2022-08-20T07:07:42.533Z,99.99
2022-08-20T07:08:42.538Z,99.99
2022-08-20T07:09:42.505Z,99.99
2022-08-20T07:10:42.541Z,99.99
2022-08-20T07:11:42.491Z,99.99
2022-08-20T07:12:42.475Z,99.99
2022-08-20T07:13:42.463Z,99.99
2022-08-20T07:14:42.748Z,99.99
2022-08-20T07:15:42.431Z,99.99
2022-08-20T07:16:42.433Z,99.99
2022-08-20T07:17:42.401Z,99.99
2022-08-20T07:18:42.405Z,99.99
2022-08-20T07:19:42.384Z,99.99
2022-08-20T07:20:42.361Z,99.99
2022-08-20T07:21:42.383Z,99.99
2022-08-20T07:22:42.355Z,99.99
2022-08-20T07:23:42.335Z,99.99
2022-08-20T07:24:45.957Z,99.99
2022-08-20T07:25:43.307Z,99.99
2022-08-20T07:26:42.282Z,99.99
2022-08-20T07:27:42.294Z,99.99
2022-08-20T07:28:42.268Z,99.99
2022-08-20T07:29:42.237Z,99.99
2022-08-20T07:30:55.966Z,99.99
2022-08-20T07:31:43.230Z,99.99
2022-08-20T07:32:45.288Z,99.99
2022-08-20T07:33:44.594Z,99.99
2022-08-20T07:34:43.643Z,99.99
2022-08-20T07:35:42.165Z,99.99
2022-08-20T07:36:42.170Z,99.99
2022-08-20T07:37:42.153Z,99.99
2022-08-20T07:38:42.119Z,99.99
2022-08-20T07:39:42.168Z,99.99
2022-08-20T07:40:42.111Z,99.99
2022-08-20T07:41:42.081Z,99.99
2022-08-20T07:42:42.080Z,99.99
2022-08-20T07:43:42.082Z,99.99
2022-08-20T07:44:42.161Z,99.99
2022-08-20T07:45:42.044Z,99.99
2022-08-20T07:46:43.011Z,99.99
2022-08-20T07:47:42.002Z,99.99
2022-08-20T07:48:42.037Z,99.99
2022-08-20T07:49:41.972Z,99.99
2022-08-20T07:50:43.115Z,99.99
2022-08-20T07:51:41.966Z,99.99
2022-08-20T07:52:41.933Z,99.99
2022-08-20T07:53:41.923Z,99.99
2022-08-20T07:54:41.928Z,99.99
2022-08-20T07:55:41.938Z,99.99
2022-08-20T07:56:42.887Z,99.99
2022-08-20T07:57:41.892Z,99.99
2022-08-20T07:58:41.856Z,99.99
2022-08-20T07:59:41.846Z,99.99
2022-08-20T08:00:41.903Z,99.99
2022-08-20T08:01:41.837Z,99.99
2022-08-20T08:02:41.823Z,99.99
2022-08-20T08:03:49.723Z,99.99
2022-08-20T08:04:42.787Z,99.99
2022-08-20T08:05:41.781Z,99.99
2022-08-20T08:06:41.769Z,99.99
2022-08-20T08:07:43.099Z,99.99
2022-08-20T08:08:41.742Z,99.99
2022-08-20T08:09:41.738Z,99.99
2022-08-20T08:10:41.700Z,99.99
2022-08-20T08:11:46.488Z,99.99
2022-08-20T08:12:42.685Z,99.99
2022-08-20T08:13:41.662Z,98.88
2022-08-20T08:14:41.663Z,98.68
2022-08-20T08:15:41.655Z,97.78
2022-08-20T08:16:41.622Z,96.88
2022-08-20T08:17:41.626Z,96.58
2022-08-20T08:18:41.596Z,97.28
2022-08-20T08:19:41.591Z,97.28
2022-08-20T08:20:46.680Z,97.62
2022-08-20T08:21:42.563Z,97.92
2022-08-20T08:22:41.586Z,98.82
2022-08-20T08:23:41.552Z,98.17
2022-08-20T08:24:41.517Z,97.87
2022-08-20T08:25:42.508Z,98.07
2022-08-20T08:26:41.500Z,98.27
2022-08-20T08:27:41.491Z,98.32
2022-08-20T08:28:41.499Z,98.43
2022-08-20T08:29:41.469Z,98.82
2022-08-20T08:30:41.435Z,98.13
2022-08-20T08:31:41.428Z,96.82
2022-08-20T08:32:41.421Z,96.62
2022-08-20T08:33:41.401Z,96.56
2022-08-20T08:34:41.393Z,97.37
2022-08-20T08:35:41.413Z,97.62
2022-08-20T08:36:41.352Z,98.22
2022-08-20T08:37:41.365Z,98.22
2022-08-20T08:38:41.331Z,97.32
2022-08-20T08:39:41.390Z,97.92
2022-08-20T08:40:41.315Z,98.43
2022-08-20T08:41:41.292Z,97.32
2022-08-20T08:42:43.210Z,98.13
2022-08-20T08:43:41.280Z,98.07
2022-08-20T08:44:41.244Z,98.17
2022-08-20T08:45:41.286Z,98.67
2022-08-20T08:46:41.215Z,97.97
2022-08-20T08:47:41.213Z,97.37
2022-08-20T08:48:41.211Z,96.67
2022-08-20T08:49:41.193Z,95.97
2022-08-20T08:50:53.191Z,96.77
2022-08-20T08:51:42.285Z,96.22
2022-08-20T08:52:41.137Z,96.52
2022-08-20T08:53:41.144Z,96.42
2022-08-20T08:54:41.107Z,96.42
2022-08-20T08:55:41.106Z,96.22
2022-08-20T08:56:41.106Z,96.17
2022-08-20T08:57:41.093Z,95.77
2022-08-20T08:58:41.059Z,96.63
2022-08-20T08:59:52.458Z,95.32
2022-08-20T09:00:42.046Z,94.82
2022-08-20T09:01:54.504Z,94.93
2022-08-20T09:02:42.069Z,95.93
2022-08-20T09:03:41.008Z,94.32
2022-08-20T09:04:40.972Z,94.12
2022-08-20T09:05:40.985Z,93.52
2022-08-20T09:06:40.944Z,93.88
2022-08-20T09:07:40.943Z,92.33
2022-08-20T09:08:40.941Z,91.29
2022-08-20T09:09:40.917Z,90.65
2022-08-20T09:10:40.914Z,89.09
2022-08-20T09:11:40.907Z,89.55
2022-08-20T09:12:43.389Z,89.45
2022-08-20T09:13:41.856Z,90.05
2022-08-20T09:14:40.849Z,89.81
2022-08-20T09:15:40.909Z,87.41
2022-08-20T09:16:52.438Z,87.61
2022-08-20T09:17:41.932Z,88.26
2022-08-20T09:18:40.787Z,87.46
2022-08-20T09:19:40.783Z,87.58
2022-08-20T09:20:40.783Z,87.08
2022-08-20T09:21:40.759Z,84.39
2022-08-20T09:22:40.750Z,84.13
2022-08-20T09:23:40.770Z,84.27
2022-08-20T09:24:40.709Z,84.29
2022-08-20T09:25:40.722Z,84.49
2022-08-20T09:26:40.688Z,84.29
2022-08-20T09:27:41.445Z,84.35
2022-08-20T09:28:40.678Z,84.27
2022-08-20T09:29:40.694Z,81.80
2022-08-20T09:30:40.631Z,82.14
2022-08-20T09:31:40.648Z,83.29
2022-08-20T09:32:40.619Z,78.28
2022-08-20T09:33:40.594Z,77.72
2022-08-20T09:34:40.588Z,80.00
2022-08-20T09:35:40.599Z,79.51
2022-08-20T09:36:40.562Z,79.21
2022-08-20T09:37:40.558Z,78.81
2022-08-20T09:38:40.525Z,76.98
2022-08-20T09:39:40.556Z,78.28
2022-08-20T09:40:40.555Z,78.34
2022-08-20T09:41:40.495Z,78.08
2022-08-20T09:42:41.825Z,77.34
2022-08-20T09:43:40.481Z,76.87
2022-08-20T09:44:40.448Z,75.59
2022-08-20T09:45:40.452Z,77.55
2022-08-20T09:46:40.448Z,79.83
2022-08-20T09:47:48.725Z,79.05
2022-08-20T09:48:41.410Z,81.98
2022-08-20T09:49:40.393Z,80.52
2022-08-20T09:50:40.384Z,81.82
2022-08-20T09:51:40.384Z,80.35
2022-08-20T09:52:40.899Z,77.92
2022-08-20T09:53:40.356Z,76.21
2022-08-20T09:54:46.475Z,74.09
2022-08-20T09:55:41.313Z,76.25
2022-08-20T09:56:40.305Z,73.96
2022-08-20T09:57:40.283Z,73.83
2022-08-20T09:58:40.277Z,76.29
2022-08-20T09:59:40.268Z,77.66
2022-08-20T10:00:40.237Z,79.19
2022-08-20T10:01:40.248Z,78.89
2022-08-20T10:02:40.228Z,79.49
2022-08-20T10:03:41.865Z,80.08
2022-08-20T10:04:40.187Z,78.69
2022-08-20T10:05:40.190Z,78.43
2022-08-20T10:06:40.158Z,79.76
2022-08-20T10:07:40.149Z,80.86
2022-08-20T10:08:40.153Z,82.65
2022-08-20T10:09:40.153Z,80.16
2022-08-20T10:10:40.129Z,80.62
2022-08-20T10:11:40.118Z,79.82
2022-08-20T10:12:40.080Z,82.26
2022-08-20T10:13:40.090Z,79.80
2022-08-20T10:14:40.060Z,80.00
2022-08-20T10:15:40.364Z,80.64
2022-08-20T10:16:40.044Z,81.24
2022-08-20T10:17:40.027Z,80.80
2022-08-20T10:18:40.000Z,80.10
2022-08-20T10:19:39.993Z,78.83
2022-08-20T10:20:39.989Z,79.09
2022-08-20T10:21:39.968Z,77.80
2022-08-20T10:22:39.958Z,78.55
2022-08-20T10:23:39.959Z,75.79
2022-08-20T10:24:39.915Z,73.60
2022-08-20T10:25:39.959Z,75.85
2022-08-20T10:26:39.899Z,74.00
2022-08-20T10:27:39.884Z,75.29
2022-08-20T10:28:39.885Z,76.32
2022-08-20T10:29:43.032Z,73.30
2022-08-20T10:30:40.881Z,73.86
2022-08-20T10:31:39.877Z,70.75
2022-08-20T10:32:39.808Z,68.90
2022-08-20T10:33:39.806Z,67.74
2022-08-20T10:34:39.802Z,64.01
2022-08-20T10:35:39.793Z,64.11
2022-08-20T10:36:39.793Z,65.50
2022-08-20T10:37:39.764Z,65.63
2022-08-20T10:38:39.734Z,61.98
2022-08-20T10:39:39.781Z,61.82
2022-08-20T10:40:39.724Z,63.01
2022-08-20T10:41:39.700Z,60.97
2022-08-20T10:42:42.634Z,61.39
2022-08-20T10:43:39.700Z,62.17
2022-08-20T10:44:39.653Z,63.35
2022-08-20T10:45:40.375Z,65.89
2022-08-20T10:46:39.626Z,69.46
2022-08-20T10:47:39.624Z,72.97
2022-08-20T10:48:39.618Z,70.52
2022-08-20T10:49:39.595Z,67.47
2022-08-20T10:50:39.590Z,66.31
2022-08-20T10:51:39.582Z,65.78
2022-08-20T10:52:39.656Z,64.01
2022-08-20T10:53:39.667Z,62.96
2022-08-20T10:54:39.527Z,60.55
2022-08-20T10:55:39.521Z,60.65
2022-08-20T10:56:39.513Z,62.01
2022-08-20T10:57:39.488Z,59.74
2022-08-20T10:58:40.060Z,57.91
2022-08-20T10:59:39.475Z,57.54
2022-08-20T11:00:39.451Z,58.95
2022-08-20T11:01:39.533Z,60.07
2022-08-20T11:02:39.423Z,59.38
2022-08-20T11:03:39.411Z,58.15
2022-08-20T11:04:39.529Z,61.96
2022-08-20T11:05:39.403Z,61.18
2022-08-20T11:06:39.373Z,59.06
2022-08-20T11:07:50.031Z,59.14
2022-08-20T11:08:40.359Z,58.78
2022-08-20T11:09:39.335Z,56.56
2022-08-20T11:10:39.340Z,53.50
2022-08-20T11:11:39.328Z,57.28
2022-08-20T11:12:39.296Z,54.61
2022-08-20T11:13:39.299Z,54.34
2022-08-20T11:14:39.267Z,54.73
2022-08-20T11:15:39.288Z,54.04
2022-08-20T11:16:39.297Z,54.31
2022-08-20T11:17:39.236Z,53.39
2022-08-20T11:18:40.983Z,52.87
2022-08-20T11:19:39.222Z,54.13
2022-08-20T11:20:39.189Z,55.54
2022-08-20T11:21:39.290Z,54.01
2022-08-20T11:22:39.175Z,51.15
2022-08-20T11:23:39.171Z,53.22
2022-08-20T11:24:39.142Z,55.38
2022-08-20T11:25:39.143Z,57.88
2022-08-20T11:26:39.112Z,58.45
2022-08-20T11:27:39.146Z,58.51
2022-08-20T11:28:39.096Z,58.70
2022-08-20T11:29:39.072Z,59.97
2022-08-20T11:30:39.067Z,61.62
2022-08-20T11:31:39.065Z,62.48
2022-08-20T11:32:39.028Z,62.78
2022-08-20T11:33:39.039Z,62.64
2022-08-20T11:34:39.005Z,63.57
2022-08-20T11:35:43.443Z,64.29
2022-08-20T11:36:39.990Z,65.68
2022-08-20T11:37:38.980Z,63.70
2022-08-20T11:38:38.946Z,61.40
2022-08-20T11:39:41.836Z,58.59
2022-08-20T11:40:38.933Z,55.02
2022-08-20T11:41:38.909Z,54.36
2022-08-20T11:42:53.248Z,55.49
2022-08-20T11:43:40.013Z,57.58
2022-08-20T11:44:38.869Z,59.00
2022-08-20T11:45:38.873Z,60.96
2022-08-20T11:46:38.840Z,63.70
2022-08-20T11:47:38.832Z,64.29
2022-08-20T11:48:38.825Z,66.91
2022-08-20T11:49:38.832Z,68.66
2022-08-20T11:50:38.813Z,69.46
2022-08-20T11:51:49.122Z,66.97
2022-08-20T11:52:39.763Z,64.27
2022-08-20T11:53:38.744Z,60.83
2022-08-20T11:54:38.756Z,59.59
2022-08-20T11:55:38.909Z,58.51
2022-08-20T11:56:38.713Z,55.20
2022-08-20T11:57:39.709Z,54.46
2022-08-20T11:58:38.686Z,52.50
2022-08-20T11:59:38.666Z,54.23
2022-08-20T12:00:38.676Z,54.03
2022-08-20T12:01:38.638Z,54.28
2022-08-20T12:02:38.660Z,52.98
2022-08-20T12:03:38.623Z,55.82
2022-08-20T12:04:38.609Z,58.07
2022-08-20T12:05:38.614Z,57.84
2022-08-20T12:06:38.580Z,60.86
2022-08-20T12:07:38.561Z,59.42
2022-08-20T12:08:38.573Z,57.56
2022-08-20T12:09:39.903Z,56.58
2022-08-20T12:10:39.644Z,55.35
2022-08-20T12:11:38.522Z,53.42
2022-08-20T12:12:38.516Z,54.57
2022-08-20T12:13:48.214Z,53.71
2022-08-20T12:14:39.495Z,52.19
2022-08-20T12:15:38.468Z,49.97
2022-08-20T12:16:38.485Z,50.21
2022-08-20T12:17:38.448Z,50.46
2022-08-20T12:18:38.427Z,53.99
2022-08-20T12:19:38.406Z,56.63
2022-08-20T12:20:38.418Z,60.19
2022-08-20T12:21:38.387Z,58.75
2022-08-20T12:22:38.500Z,62.08
2022-08-20T12:23:38.371Z,61.55
2022-08-20T12:24:38.349Z,61.88
2022-08-20T12:25:38.329Z,63.70
2022-08-20T12:26:38.341Z,62.40
2022-08-20T12:27:38.313Z,62.63
2022-08-20T12:28:38.306Z,62.93
2022-08-20T12:29:38.296Z,64.62
2022-08-20T12:30:38.270Z,63.79
2022-08-20T12:31:38.251Z,62.21
2022-08-20T12:32:38.266Z,63.43
2022-08-20T12:33:38.232Z,60.07
2022-08-20T12:34:38.235Z,57.16
2022-08-20T12:35:38.217Z,55.40
2022-08-20T12:36:38.194Z,54.16
2022-08-20T12:37:38.188Z,53.72
2022-08-20T12:38:38.275Z,53.89
2022-08-20T12:40:32.000Z,56.49
2022-08-20T12:40:39.160Z,55.52
2022-08-20T12:41:38.141Z,53.85
2022-08-20T12:42:38.116Z,55.44
2022-08-20T12:43:38.097Z,51.59
2022-08-20T12:45:13.843Z,53.00
2022-08-20T12:45:38.077Z,51.59
2022-08-20T12:46:38.082Z,51.20
2022-08-20T12:49:36.615Z,51.47
2022-08-20T12:49:41.310Z,51.05
2022-08-20T12:50:41.304Z,49.57
2022-08-20T12:51:41.281Z,49.62
2022-08-20T12:52:41.264Z,49.26
2022-08-20T12:53:41.276Z,46.17